createdAt,value
2017-10-28T00:01:22.084Z,82.40
2017-10-28T00:03:49.502Z,82.30
2017-10-28T00:06:18.032Z,82.20
2017-10-28T00:08:45.482Z,82.10
2017-10-28T00:11:12.906Z,82.00
2017-10-28T00:13:41.119Z,82.20
2017-10-28T00:16:08.580Z,82.10
2017-10-28T00:18:36.016Z,82.40
2017-10-28T00:21:03.446Z,82.50
2017-10-28T00:23:31.659Z,82.50
2017-10-28T00:25:59.073Z,82.40
2017-10-28T00:28:27.284Z,82.60
2017-10-28T00:31:12.559Z,82.40
2017-10-28T00:33:45.564Z,82.70
2017-10-28T00:36:13.932Z,82.60
2017-10-28T00:38:41.373Z,82.50
2017-10-28T00:41:08.801Z,82.50
2017-10-28T00:43:37.338Z,82.50
2017-10-28T00:46:04.766Z,82.40
2017-10-28T00:48:32.254Z,82.60
2017-10-28T00:50:59.690Z,82.70
2017-10-28T00:53:27.161Z,83.00
2017-10-28T00:55:54.621Z,83.20
2017-10-28T00:58:22.082Z,83.50
2017-10-28T01:00:49.533Z,84.40
2017-10-28T01:03:16.998Z,83.80
2017-10-28T01:05:44.764Z,83.70
2017-10-28T01:08:12.217Z,83.70
2017-10-28T01:10:39.653Z,84.00
2017-10-28T01:13:07.084Z,84.00
2017-10-28T01:15:35.273Z,84.30
2017-10-28T01:18:03.503Z,84.30
2017-10-28T01:20:32.478Z,84.50
2017-10-28T01:22:59.911Z,84.50
2017-10-28T01:25:27.334Z,84.60
2017-10-28T01:27:55.538Z,85.10
2017-10-28T01:30:22.973Z,85.00
2017-10-28T01:32:51.501Z,85.30
2017-10-28T01:35:18.937Z,85.20
2017-10-28T01:37:46.354Z,85.40
2017-10-28T01:40:14.569Z,85.90
2017-10-28T01:42:41.992Z,85.70
2017-10-28T01:45:10.198Z,86.20
2017-10-28T01:47:37.691Z,86.00
2017-10-28T01:50:05.137Z,86.20
2017-10-28T01:52:32.640Z,86.10
2017-10-28T01:55:00.834Z,86.50
2017-10-28T01:57:28.325Z,86.30
2017-10-28T01:59:55.749Z,86.60
2017-10-28T02:02:23.205Z,86.70
2017-10-28T02:04:51.421Z,86.90
2017-10-28T02:07:18.872Z,86.80
2017-10-28T02:09:46.297Z,86.90
2017-10-28T02:12:13.730Z,86.80
2017-10-28T02:14:41.930Z,87.00
2017-10-28T02:17:09.729Z,87.00
2017-10-28T02:19:37.150Z,87.30
2017-10-28T02:22:04.648Z,87.30
2017-10-28T02:24:32.102Z,87.30
2017-10-28T02:26:59.538Z,87.50
2017-10-28T02:29:26.980Z,87.60
2017-10-28T02:31:54.404Z,87.70
2017-10-28T02:34:22.137Z,87.70
2017-10-28T02:36:49.575Z,87.70
2017-10-28T02:39:17.001Z,87.80
2017-10-28T02:41:45.210Z,88.10
2017-10-28T02:44:12.627Z,88.10
2017-10-28T02:46:40.853Z,88.00
2017-10-28T02:49:08.280Z,87.80
2017-10-28T02:51:35.984Z,87.90
2017-10-28T02:54:03.413Z,88.10
2017-10-28T02:56:30.837Z,88.40
2017-10-28T02:58:59.048Z,88.40
2017-10-28T03:01:26.471Z,88.30
2017-10-28T03:03:54.684Z,89.00
2017-10-28T03:06:22.140Z,88.90
2017-10-28T03:08:49.581Z,89.10
2017-10-28T03:11:17.029Z,89.30
2017-10-28T03:13:44.835Z,89.40
2017-10-28T03:16:12.273Z,89.60
2017-10-28T03:18:39.732Z,89.90
2017-10-28T03:21:07.156Z,90.10
2017-10-28T03:23:35.365Z,90.20
2017-10-28T03:26:02.802Z,90.20
2017-10-28T03:28:30.230Z,90.30
2017-10-28T03:30:58.446Z,90.50
2017-10-28T03:33:25.874Z,90.50
2017-10-28T03:35:54.408Z,90.60
2017-10-28T03:38:21.849Z,90.50
2017-10-28T03:40:49.273Z,90.60
2017-10-28T03:43:17.496Z,90.70
2017-10-28T03:45:44.921Z,90.60
2017-10-28T03:48:12.363Z,90.70
2017-10-28T03:50:40.550Z,90.70
2017-10-28T03:53:07.995Z,90.60
2017-10-28T03:55:36.181Z,90.60
2017-10-28T03:58:03.994Z,90.60
2017-10-28T04:00:31.445Z,90.60
2017-10-28T04:02:58.880Z,90.60
2017-10-28T04:05:26.321Z,90.60
2017-10-28T04:07:53.758Z,90.40
2017-10-28T04:10:21.956Z,90.40
2017-10-28T04:12:49.396Z,90.30
2017-10-28T04:15:17.849Z,90.30
2017-10-28T04:17:45.280Z,90.30
2017-10-28T04:20:12.747Z,90.50
2017-10-28T04:22:40.177Z,90.50
2017-10-28T04:25:07.603Z,90.50
2017-10-28T04:27:35.813Z,90.30
2017-10-28T04:30:03.271Z,90.30
2017-10-28T04:32:31.035Z,90.30
2017-10-28T04:34:58.462Z,90.30
2017-10-28T04:37:26.663Z,90.20
2017-10-28T04:39:54.108Z,90.20
2017-10-28T04:42:21.543Z,90.10
2017-10-28T04:44:49.754Z,90.20
2017-10-28T04:47:17.172Z,90.20
2017-10-28T04:49:45.696Z,90.30
2017-10-28T04:52:13.121Z,90.30
2017-10-28T04:54:41.323Z,90.30
2017-10-28T04:57:08.781Z,90.20
2017-10-28T04:59:36.193Z,90.20
2017-10-28T05:02:04.462Z,90.20
2017-10-28T05:04:32.657Z,90.30
2017-10-28T05:07:01.188Z,90.20
2017-10-28T05:09:28.613Z,90.20
2017-10-28T05:11:56.043Z,90.20
2017-10-28T05:14:24.238Z,90.20
2017-10-28T05:16:51.664Z,90.20
2017-10-28T05:19:19.114Z,90.20
2017-10-28T05:21:46.543Z,90.60
2017-10-28T05:24:13.981Z,90.30
2017-10-28T05:26:41.416Z,90.40
2017-10-28T05:29:09.621Z,90.30
2017-10-28T05:31:37.048Z,90.30
2017-10-28T05:34:05.656Z,90.20
2017-10-28T05:36:33.138Z,90.20
2017-10-28T05:39:00.557Z,90.20
2017-10-28T05:41:28.045Z,90.10
2017-10-28T05:43:55.473Z,90.00
2017-10-28T05:46:22.913Z,90.20
2017-10-28T05:48:51.102Z,90.30
2017-10-28T05:51:18.797Z,90.20
2017-10-28T05:53:46.253Z,90.20
2017-10-28T05:56:13.678Z,90.20
2017-10-28T05:58:41.174Z,90.10
2017-10-28T06:01:08.629Z,90.00
2017-10-28T06:03:36.074Z,89.40
2017-10-28T06:06:03.634Z,89.10
2017-10-28T06:08:31.409Z,88.80
2017-10-28T06:10:58.829Z,88.30
2017-10-28T06:13:26.257Z,88.00
2017-10-28T06:15:53.877Z,87.50
2017-10-28T06:18:21.302Z,87.10
2017-10-28T06:20:48.733Z,86.80
2017-10-28T06:23:16.164Z,86.40
2017-10-28T06:25:43.595Z,86.10
2017-10-28T06:28:11.036Z,85.70
2017-10-28T06:30:38.474Z,85.50
2017-10-28T06:33:06.669Z,85.10
2017-10-28T06:35:34.372Z,85.10
2017-10-28T06:38:01.809Z,85.60
2017-10-28T06:40:29.244Z,84.60
2017-10-28T06:42:57.438Z,84.50
2017-10-28T06:45:24.869Z,84.50
2017-10-28T06:47:52.301Z,84.20
2017-10-28T06:50:19.730Z,84.00
2017-10-28T06:52:47.486Z,83.90
2017-10-28T06:55:14.909Z,83.80
2017-10-28T06:57:42.333Z,83.50
2017-10-28T07:00:09.786Z,83.30
2017-10-28T07:02:37.214Z,82.90
2017-10-28T07:05:04.654Z,82.90
2017-10-28T07:07:32.135Z,82.70
2017-10-28T07:09:59.571Z,82.50
2017-10-28T07:12:27.045Z,82.40
2017-10-28T07:14:54.598Z,80.80
2017-10-28T07:17:22.026Z,80.40
2017-10-28T07:19:49.724Z,80.10
2017-10-28T07:22:17.271Z,80.00
2017-10-28T07:24:44.852Z,79.90
2017-10-28T07:27:12.301Z,79.50
2017-10-28T07:29:39.760Z,79.50
2017-10-28T07:32:07.208Z,79.70
2017-10-28T07:34:34.643Z,79.90
2017-10-28T07:37:02.092Z,79.90
2017-10-28T07:39:29.533Z,80.10
2017-10-28T07:41:57.725Z,80.30
2017-10-28T07:44:25.180Z,80.20
2017-10-28T07:46:52.614Z,80.10
2017-10-28T07:49:20.814Z,80.10
2017-10-28T07:51:48.289Z,80.10
2017-10-28T07:54:15.721Z,80.20
2017-10-28T07:56:43.173Z,80.50
2017-10-28T07:59:10.663Z,80.60
2017-10-28T08:01:38.096Z,80.40
2017-10-28T08:04:11.282Z,79.90
2017-10-28T08:06:38.726Z,79.60
2017-10-28T08:09:06.181Z,79.40
2017-10-28T08:11:33.613Z,79.20
2017-10-28T08:14:01.329Z,79.40
2017-10-28T08:16:28.767Z,79.20
2017-10-28T08:18:56.202Z,79.30
2017-10-28T08:21:24.425Z,79.10
2017-10-28T08:23:51.893Z,79.10
2017-10-28T08:26:19.445Z,79.00
2017-10-28T08:28:46.886Z,78.80
2017-10-28T08:31:14.621Z,78.50
2017-10-28T08:33:42.832Z,78.40
2017-10-28T08:36:10.261Z,78.30
2017-10-28T08:38:37.773Z,77.30
2017-10-28T08:41:06.731Z,76.70
2017-10-28T08:43:34.509Z,76.80
2017-10-28T08:46:01.978Z,75.90
2017-10-28T08:48:29.425Z,76.00
2017-10-28T08:50:56.889Z,75.90
2017-10-28T08:53:25.096Z,74.40
2017-10-28T08:55:53.333Z,74.50
2017-10-28T08:58:20.781Z,74.50
2017-10-28T09:00:48.561Z,74.00
2017-10-28T09:03:16.002Z,74.10
2017-10-28T09:05:44.003Z,74.10
2017-10-28T09:08:11.545Z,72.30
2017-10-28T09:10:39.005Z,71.80
2017-10-28T09:13:06.694Z,71.50
2017-10-28T09:15:34.233Z,70.80
2017-10-28T09:18:03.521Z,69.10
2017-10-28T09:20:30.973Z,69.70
2017-10-28T09:22:58.408Z,69.60
2017-10-28T09:25:25.849Z,70.00
2017-10-28T09:27:53.558Z,70.20
2017-10-28T09:30:21.317Z,70.80
2017-10-28T09:32:48.758Z,71.10
2017-10-28T09:35:16.269Z,70.70
2017-10-28T09:37:44.523Z,70.00
2017-10-28T09:40:12.065Z,69.90
2017-10-28T09:42:39.525Z,69.60
2017-10-28T09:45:06.970Z,69.00
2017-10-28T09:47:34.434Z,68.30
2017-10-28T09:50:01.889Z,67.50
2017-10-28T09:52:29.324Z,66.80
2017-10-28T09:54:56.797Z,66.40
2017-10-28T09:57:24.228Z,66.20
2017-10-28T09:59:52.033Z,66.10
2017-10-28T10:02:19.461Z,65.50
2017-10-28T10:04:46.952Z,64.80
2017-10-28T10:07:14.502Z,64.60
2017-10-28T10:09:41.950Z,64.50
2017-10-28T10:12:09.430Z,65.30
2017-10-28T10:14:37.381Z,64.00
2017-10-28T10:17:05.158Z,63.80
2017-10-28T10:19:32.581Z,63.90
2017-10-28T10:22:00.009Z,63.50
2017-10-28T10:24:28.222Z,63.00
2017-10-28T10:26:55.653Z,62.90
2017-10-28T10:29:23.114Z,62.30
2017-10-28T10:31:50.540Z,61.80
2017-10-28T10:34:18.289Z,61.50
2017-10-28T10:36:45.721Z,61.80
2017-10-28T10:39:13.276Z,61.90
2017-10-28T10:41:40.693Z,61.50
2017-10-28T10:44:08.881Z,61.40
2017-10-28T10:46:37.093Z,61.40
2017-10-28T10:49:04.532Z,61.30
2017-10-28T10:51:32.594Z,60.80
2017-10-28T10:54:01.314Z,60.60
2017-10-28T10:56:29.289Z,60.50
2017-10-28T10:58:57.269Z,60.20
2017-10-28T11:01:25.226Z,59.70
2017-10-28T11:03:53.240Z,60.20
2017-10-28T11:06:21.169Z,60.10
2017-10-28T11:08:49.087Z,60.70
2017-10-28T11:11:17.866Z,59.70
2017-10-28T11:13:46.309Z,60.90
2017-10-28T11:16:14.246Z,60.10
2017-10-28T11:18:41.670Z,61.10
2017-10-28T11:21:09.958Z,59.70
2017-10-28T11:23:38.524Z,59.70
2017-10-28T11:26:07.465Z,60.50
2017-10-28T11:28:34.905Z,60.40
2017-10-28T11:31:02.656Z,60.40
2017-10-28T11:33:30.846Z,60.20
2017-10-28T11:35:58.277Z,60.20
2017-10-28T11:38:26.614Z,60.70
2017-10-28T11:40:54.072Z,60.70
2017-10-28T11:43:21.517Z,60.00
2017-10-28T11:45:48.985Z,59.60
2017-10-28T11:48:17.463Z,61.00
2017-10-28T11:50:44.890Z,60.00
2017-10-28T11:53:12.328Z,58.90
2017-10-28T11:55:40.535Z,58.80
2017-10-28T11:58:07.970Z,58.70
2017-10-28T12:00:35.414Z,58.60
2017-10-28T12:03:03.612Z,59.30
2017-10-28T12:05:31.057Z,59.30
2017-10-28T12:07:58.482Z,59.30
2017-10-28T12:10:25.921Z,59.60
2017-10-28T12:12:53.357Z,58.90
2017-10-28T12:15:20.798Z,58.70
2017-10-28T12:17:48.225Z,59.20
2017-10-28T12:20:15.943Z,58.80
2017-10-28T12:22:43.400Z,59.10
2017-10-28T12:25:10.881Z,59.70
2017-10-28T12:27:39.138Z,59.40
2017-10-28T12:30:06.577Z,59.40
2017-10-28T12:32:34.055Z,59.30
2017-10-28T12:35:01.482Z,59.10
2017-10-28T12:37:28.925Z,59.30
2017-10-28T12:39:56.428Z,59.30
2017-10-28T12:42:23.987Z,59.50
2017-10-28T12:44:51.453Z,60.00
2017-10-28T12:47:19.207Z,60.00
2017-10-28T12:49:46.639Z,60.90
2017-10-28T12:52:14.122Z,59.90
2017-10-28T12:54:41.566Z,59.80
2017-10-28T12:57:09.045Z,59.10
2017-10-28T12:59:36.501Z,59.00
2017-10-28T13:02:03.950Z,59.20
2017-10-28T13:04:31.710Z,59.10
2017-10-28T13:06:59.153Z,59.40
2017-10-28T13:09:26.633Z,59.40
2017-10-28T13:11:54.188Z,59.10
2017-10-28T13:14:21.643Z,59.00
2017-10-28T13:16:49.102Z,59.10
2017-10-28T13:19:16.549Z,59.20
2017-10-28T13:21:43.996Z,58.70
2017-10-28T13:24:11.433Z,58.60
2017-10-28T13:26:39.652Z,59.00
2017-10-28T13:29:07.093Z,58.90
2017-10-28T13:31:34.882Z,58.90
2017-10-28T13:34:02.306Z,59.00
2017-10-28T13:36:29.734Z,58.60
2017-10-28T13:38:57.962Z,58.90
2017-10-28T13:41:25.423Z,58.90
2017-10-28T13:43:52.868Z,58.50
2017-10-28T13:46:20.296Z,58.50
2017-10-28T13:48:48.108Z,58.70
2017-10-28T13:51:15.533Z,58.30
2017-10-28T13:53:42.963Z,59.30
2017-10-28T13:56:11.193Z,58.30
2017-10-28T13:58:38.758Z,58.20
2017-10-28T14:01:06.317Z,57.90
2017-10-28T14:03:33.749Z,57.80
2017-10-28T14:06:01.201Z,58.20
2017-10-28T14:08:28.655Z,58.20
2017-10-28T14:10:56.137Z,58.40
2017-10-28T14:13:23.577Z,57.70
2017-10-28T14:15:51.027Z,57.70
2017-10-28T14:18:18.458Z,57.50
2017-10-28T14:20:46.992Z,56.90
2017-10-28T14:23:14.424Z,57.40
2017-10-28T14:25:41.906Z,56.50
2017-10-28T14:28:09.355Z,56.40
2017-10-28T14:30:36.778Z,55.90
2017-10-28T14:33:04.997Z,56.00
2017-10-28T14:35:32.448Z,55.90
2017-10-28T14:37:59.889Z,55.90
2017-10-28T14:40:27.312Z,56.50
2017-10-28T14:42:55.525Z,57.20
2017-10-28T14:45:22.981Z,57.10
2017-10-28T14:47:50.761Z,57.50
2017-10-28T14:50:18.206Z,57.40
2017-10-28T14:52:45.645Z,57.80
2017-10-28T14:55:13.101Z,58.00
2017-10-28T14:57:40.528Z,58.00
2017-10-28T15:00:09.069Z,58.80
2017-10-28T15:02:36.534Z,58.70
2017-10-28T15:05:03.955Z,58.60
2017-10-28T15:07:31.396Z,58.90
2017-10-28T15:09:59.629Z,58.70
2017-10-28T15:12:27.073Z,58.70
2017-10-28T15:14:54.551Z,58.80
2017-10-28T15:17:22.305Z,59.10
2017-10-28T15:19:49.742Z,59.00
2017-10-28T15:22:17.174Z,59.30
2017-10-28T15:24:44.624Z,59.30
2017-10-28T15:27:12.849Z,59.90
2017-10-28T15:29:40.408Z,59.20
2017-10-28T15:32:07.836Z,59.30
2017-10-28T15:34:35.562Z,59.40
2017-10-28T15:37:02.993Z,59.40
2017-10-28T15:39:30.426Z,59.40
2017-10-28T15:41:57.881Z,59.70
2017-10-28T15:44:25.314Z,59.60
2017-10-28T15:46:52.752Z,59.80
2017-10-28T15:49:20.958Z,59.90
2017-10-28T15:51:48.658Z,59.90
2017-10-28T15:54:16.109Z,60.20
2017-10-28T15:56:43.569Z,60.40
2017-10-28T15:59:11.022Z,60.80
2017-10-28T16:01:38.481Z,60.30
2017-10-28T16:06:36.458Z,60.80
2017-10-28T16:09:04.154Z,60.70
2017-10-28T16:11:31.586Z,60.70
2017-10-28T16:13:59.097Z,61.00
2017-10-28T16:16:27.304Z,61.30
2017-10-28T16:18:54.778Z,61.20
2017-10-28T16:21:22.254Z,61.40
2017-10-28T16:23:49.672Z,61.30
2017-10-28T16:26:17.113Z,61.40
2017-10-28T16:28:44.554Z,61.50
2017-10-28T16:31:12.786Z,61.60
2017-10-28T16:33:40.236Z,61.50
2017-10-28T16:36:07.674Z,61.50
2017-10-28T16:38:35.125Z,61.70
2017-10-28T16:41:02.574Z,61.70
2017-10-28T16:43:30.785Z,61.70
2017-10-28T16:45:58.243Z,61.60
2017-10-28T16:48:26.006Z,61.90
2017-10-28T16:50:53.449Z,62.00
2017-10-28T16:53:20.884Z,62.20
2017-10-28T16:55:48.380Z,62.50
2017-10-28T16:58:15.822Z,62.50
2017-10-28T17:00:43.261Z,62.40
2017-10-28T17:03:10.754Z,62.30
2017-10-28T17:05:38.509Z,62.50
2017-10-28T17:08:05.944Z,62.00
2017-10-28T17:10:33.434Z,62.10
2017-10-28T17:13:00.882Z,62.00
2017-10-28T17:15:28.317Z,62.00
2017-10-28T17:17:56.117Z,62.20
2017-10-28T17:20:23.569Z,62.00
2017-10-28T17:22:50.993Z,61.90
2017-10-28T17:25:18.448Z,61.70
2017-10-28T17:27:45.881Z,62.10
2017-10-28T17:30:14.093Z,62.00
2017-10-28T17:32:41.533Z,61.90
2017-10-28T17:35:09.287Z,62.30
2017-10-28T17:37:37.478Z,62.60
2017-10-28T17:40:04.908Z,62.40
2017-10-28T17:42:32.410Z,62.90
2017-10-28T17:44:59.821Z,63.30
2017-10-28T17:47:27.270Z,64.00
2017-10-28T17:49:54.711Z,63.60
2017-10-28T17:52:22.450Z,63.90
2017-10-28T17:54:49.890Z,64.10
2017-10-28T17:57:17.364Z,64.40
2017-10-28T17:59:44.802Z,64.40
2017-10-28T18:02:12.230Z,64.50
2017-10-28T18:04:39.673Z,64.90
2017-10-28T18:07:07.102Z,65.10
2017-10-28T18:09:34.536Z,65.40
2017-10-28T18:12:01.983Z,65.50
2017-10-28T18:14:29.413Z,66.10
2017-10-28T18:16:57.631Z,67.50
2017-10-28T18:19:25.058Z,67.40
2017-10-28T18:21:53.253Z,67.50
2017-10-28T18:24:20.741Z,67.40
2017-10-28T18:26:48.175Z,67.70
2017-10-28T18:29:15.641Z,67.80
2017-10-28T18:31:43.081Z,67.80
2017-10-28T18:34:10.509Z,68.30
2017-10-28T18:36:38.734Z,69.10
2017-10-28T18:39:06.201Z,69.10
2017-10-28T18:41:33.641Z,69.40
2017-10-28T18:44:01.090Z,69.40
2017-10-28T18:46:28.573Z,69.40
2017-10-28T18:48:56.128Z,69.40
2017-10-28T18:51:23.582Z,69.40
2017-10-28T18:53:51.009Z,69.30
2017-10-28T18:56:19.204Z,69.40
2017-10-28T18:58:46.651Z,69.40
2017-10-28T19:01:14.152Z,69.40
2017-10-28T19:03:41.598Z,69.50
2017-10-28T19:06:09.469Z,69.70
2017-10-28T19:08:37.108Z,69.80
2017-10-28T19:11:04.537Z,69.80
2017-10-28T19:13:32.758Z,70.10
2017-10-28T19:16:00.514Z,70.00
2017-10-28T19:18:27.978Z,70.30
2017-10-28T19:20:56.172Z,72.40
2017-10-28T19:23:25.127Z,74.80
2017-10-28T19:25:52.566Z,74.70
2017-10-28T19:28:21.090Z,77.20
2017-10-28T19:30:48.529Z,77.20
2017-10-28T19:33:16.005Z,78.20
2017-10-28T19:35:43.445Z,78.60
2017-10-28T19:38:10.890Z,79.70
2017-10-28T19:40:38.351Z,79.80
2017-10-28T19:43:05.778Z,80.10
2017-10-28T19:45:34.312Z,80.40
2017-10-28T19:48:01.757Z,80.30
2017-10-28T19:50:29.220Z,80.50
2017-10-28T19:52:56.684Z,80.40
2017-10-28T19:55:24.118Z,80.60
2017-10-28T19:57:51.597Z,80.90
2017-10-28T20:00:19.053Z,81.30
2017-10-28T20:02:46.818Z,81.30
2017-10-28T20:05:14.257Z,81.50
2017-10-28T20:07:41.689Z,81.30
2017-10-28T20:10:09.139Z,81.30
2017-10-28T20:12:37.342Z,80.70
2017-10-28T20:15:05.046Z,80.60
2017-10-28T20:17:33.253Z,80.80
2017-10-28T20:20:01.445Z,80.80
2017-10-28T20:22:28.891Z,80.80
2017-10-28T20:24:56.325Z,80.70
2017-10-28T20:27:23.857Z,80.70
2017-10-28T20:29:51.294Z,80.60
2017-10-28T20:32:19.074Z,80.70
2017-10-28T20:34:46.511Z,80.80
2017-10-28T20:37:13.938Z,81.00
2017-10-28T20:39:42.161Z,81.10
2017-10-28T20:42:09.590Z,81.00
2017-10-28T20:44:37.293Z,81.00
2017-10-28T20:47:04.936Z,81.20
2017-10-28T20:49:32.387Z,81.30
2017-10-28T20:51:59.818Z,81.00
2017-10-28T20:54:27.254Z,81.20
2017-10-28T20:56:54.706Z,81.20
2017-10-28T20:59:22.233Z,81.90
2017-10-28T21:01:49.998Z,81.30
2017-10-28T21:04:17.537Z,81.60
2017-10-28T21:06:44.949Z,81.60
2017-10-28T21:09:13.182Z,81.70
2017-10-28T21:11:40.620Z,81.50
2017-10-28T21:14:08.070Z,81.80
2017-10-28T21:16:35.547Z,82.10
2017-10-28T21:19:03.314Z,82.10
2017-10-28T21:21:30.749Z,82.20
2017-10-28T21:23:58.232Z,82.20
2017-10-28T21:26:25.685Z,82.20
2017-10-28T21:28:53.148Z,82.30
2017-10-28T21:31:20.600Z,82.20
2017-10-28T21:33:48.073Z,82.20
2017-10-28T21:36:15.828Z,82.20
2017-10-28T21:38:43.298Z,82.30
2017-10-28T21:41:10.751Z,82.40
2017-10-28T21:43:38.317Z,82.50
2017-10-28T21:46:05.744Z,82.50
2017-10-28T21:48:33.179Z,82.40
2017-10-28T21:51:01.377Z,83.30
2017-10-28T21:53:28.865Z,82.40
2017-10-28T21:55:56.297Z,82.40
2017-10-28T21:58:23.993Z,82.70
2017-10-28T22:00:51.420Z,82.50
2017-10-28T22:03:18.849Z,82.70
2017-10-28T22:05:46.293Z,82.70
2017-10-28T22:08:14.517Z,82.60
2017-10-28T22:10:41.972Z,82.60
2017-10-28T22:13:09.402Z,82.40
2017-10-28T22:15:37.239Z,82.30
2017-10-28T22:18:04.638Z,82.40
2017-10-28T22:20:32.081Z,82.40
2017-10-28T22:22:59.521Z,82.50
2017-10-28T22:25:27.743Z,82.70
2017-10-28T22:27:55.205Z,82.70
2017-10-28T22:30:22.645Z,82.80
2017-10-28T22:32:50.426Z,83.00
2017-10-28T22:35:17.883Z,83.70
2017-10-28T22:37:45.310Z,83.10
2017-10-28T22:40:12.802Z,83.10
2017-10-28T22:42:40.257Z,83.20
2017-10-28T22:45:07.998Z,83.20
2017-10-28T22:47:35.479Z,83.20
2017-10-28T22:50:02.921Z,83.40
2017-10-28T22:52:30.360Z,83.50
2017-10-28T22:54:57.788Z,83.60
2017-10-28T22:57:25.306Z,83.80
2017-10-28T22:59:52.755Z,84.00
2017-10-28T23:02:20.541Z,84.30
2017-10-28T23:04:47.976Z,84.40
2017-10-28T23:07:15.396Z,84.80
2017-10-28T23:09:43.625Z,85.10
2017-10-28T23:12:11.049Z,85.10
2017-10-28T23:14:38.492Z,85.00
2017-10-28T23:17:05.922Z,84.90
2017-10-28T23:19:33.761Z,84.90
2017-10-28T23:22:01.286Z,85.50
2017-10-28T23:24:28.719Z,84.60
2017-10-28T23:26:56.925Z,84.60
2017-10-28T23:29:24.359Z,84.60
2017-10-28T23:31:52.566Z,84.60
2017-10-28T23:34:20.024Z,84.60
2017-10-28T23:36:47.805Z,84.50
2017-10-28T23:39:15.253Z,84.60
2017-10-28T23:41:42.689Z,84.60
2017-10-28T23:44:10.147Z,84.80
2017-10-28T23:46:37.574Z,84.80
2017-10-28T23:49:05.788Z,84.80
2017-10-28T23:51:33.224Z,84.70
2017-10-28T23:54:01.445Z,84.80
2017-10-28T23:56:28.882Z,84.80
2017-10-28T23:58:56.351Z,85.00
